createdAt,value
2017-02-02T00:01:02.236Z,4.53
2017-02-02T00:03:14.433Z,4.54
2017-02-02T00:05:26.644Z,4.56
2017-02-02T00:07:38.971Z,4.56
2017-02-02T00:09:51.129Z,4.54
2017-02-02T00:12:03.290Z,4.53
2017-02-02T00:14:16.384Z,4.53
2017-02-02T00:16:28.641Z,4.49
2017-02-02T00:18:40.985Z,4.46
2017-02-02T00:20:51.692Z,4.43
2017-02-02T00:23:03.846Z,4.4
2017-02-02T00:25:16.176Z,4.36
2017-02-02T00:27:28.449Z,4.37
2017-02-02T00:29:40.703Z,4.37
2017-02-02T00:31:53.035Z,4.36
2017-02-02T00:34:05.248Z,4.38
2017-02-02T00:36:17.430Z,4.39
2017-02-02T00:38:29.545Z,4.35
2017-02-02T00:40:41.849Z,4.3
2017-02-02T00:42:54.058Z,4.29
2017-02-02T00:45:06.207Z,4.28
2017-02-02T00:47:18.591Z,4.28
2017-02-02T00:49:31.020Z,4.29
2017-02-02T00:51:43.435Z,4.28
2017-02-02T00:53:55.721Z,4.24
2017-02-02T00:56:03.043Z,4.21
2017-02-02T00:58:15.459Z,4.21
2017-02-02T01:00:27.637Z,4.21
2017-02-02T01:02:39.947Z,4.21
2017-02-02T01:04:52.205Z,4.18
2017-02-02T01:06:59.547Z,4.16
2017-02-02T01:09:11.914Z,4.14
2017-02-02T01:11:24.318Z,4.12
2017-02-02T01:13:36.510Z,4.11
2017-02-02T01:15:48.842Z,4.1
2017-02-02T01:18:01.028Z,4.06
2017-02-02T01:20:13.978Z,4.05
2017-02-02T01:22:26.654Z,4.01
2017-02-02T01:24:39.235Z,3.98
2017-02-02T01:26:51.568Z,3.97
2017-02-02T01:29:03.900Z,3.97
2017-02-02T01:31:16.153Z,3.95
2017-02-02T01:33:28.424Z,3.92
2017-02-02T01:35:40.767Z,3.89
2017-02-02T01:37:53.065Z,3.88
2017-02-02T01:40:05.279Z,3.89
2017-02-02T01:42:17.483Z,3.9
2017-02-02T01:44:29.743Z,3.91
2017-02-02T01:46:41.973Z,3.92
2017-02-02T01:48:54.277Z,3.88
2017-02-02T01:51:04.764Z,3.85
2017-02-02T01:53:16.983Z,3.82
2017-02-02T01:55:29.542Z,3.78
2017-02-02T01:57:42.150Z,3.74
2017-02-02T01:59:54.462Z,3.67
2017-02-02T02:02:06.721Z,3.64
2017-02-02T02:04:18.887Z,3.63
2017-02-02T02:06:31.248Z,3.61
2017-02-02T02:08:43.407Z,3.59
2017-02-02T02:10:55.620Z,3.6
2017-02-02T02:13:07.834Z,3.6
2017-02-02T02:15:15.189Z,3.61
2017-02-02T02:17:27.429Z,3.62
2017-02-02T02:19:39.606Z,3.62
2017-02-02T02:21:51.923Z,3.63
2017-02-02T02:24:04.254Z,3.63
2017-02-02T02:26:16.537Z,3.63
2017-02-02T02:28:28.688Z,3.62
2017-02-02T02:30:41.845Z,3.61
2017-02-02T02:32:54.381Z,3.59
2017-02-02T02:35:06.535Z,3.57
2017-02-02T02:37:18.905Z,3.54
2017-02-02T02:39:31.065Z,3.52
2017-02-02T02:41:43.307Z,3.51
2017-02-02T02:43:55.581Z,3.51
2017-02-02T02:46:07.865Z,3.51
2017-02-02T02:48:20.311Z,3.51
2017-02-02T02:50:32.603Z,3.5
2017-02-02T02:52:44.962Z,3.48
2017-02-02T02:54:55.525Z,3.48
2017-02-02T02:57:07.664Z,3.47
2017-02-02T02:59:19.962Z,3.45
2017-02-02T03:01:32.226Z,3.43
2017-02-02T03:03:44.759Z,3.42
2017-02-02T03:05:57.741Z,3.41
2017-02-02T03:08:10.079Z,3.4
2017-02-02T03:10:22.276Z,3.38
2017-02-02T03:12:34.563Z,3.37
2017-02-02T03:14:46.758Z,3.35
2017-02-02T03:16:58.961Z,3.35
2017-02-02T03:19:01.405Z,3.36
2017-02-02T03:21:13.939Z,3.39
2017-02-02T03:23:26.119Z,3.43
2017-02-02T03:25:38.325Z,3.47
2017-02-02T03:27:48.817Z,3.48
2017-02-02T03:30:00.987Z,3.5
2017-02-02T03:32:13.114Z,3.55
2017-02-02T03:34:25.398Z,3.59
2017-02-02T03:36:38.166Z,3.62
2017-02-02T03:38:50.842Z,3.65
2017-02-02T03:41:03.630Z,3.66
2017-02-02T03:43:15.962Z,3.66
2017-02-02T03:45:28.125Z,3.66
2017-02-02T03:47:40.401Z,3.67
2017-02-02T03:49:47.587Z,3.66
2017-02-02T03:51:59.749Z,3.64
2017-02-02T03:54:11.995Z,3.64
2017-02-02T03:56:24.296Z,3.63
2017-02-02T03:58:36.819Z,3.63
2017-02-02T04:00:49.101Z,3.63
2017-02-02T04:03:01.219Z,3.64
2017-02-02T04:05:13.465Z,3.67
2017-02-02T04:07:25.810Z,3.7
2017-02-02T04:09:33.208Z,3.7
2017-02-02T04:11:45.353Z,3.7
2017-02-02T04:13:57.801Z,3.7
2017-02-02T04:16:10.454Z,3.71
2017-02-02T04:18:22.594Z,3.69
2017-02-02T04:20:34.930Z,3.69
2017-02-02T04:22:47.121Z,3.67
2017-02-02T04:24:54.282Z,3.65
2017-02-02T04:27:06.905Z,3.64
2017-02-02T04:29:19.273Z,3.62
2017-02-02T04:31:31.588Z,3.63
2017-02-02T04:33:43.952Z,3.64
2017-02-02T04:35:56.380Z,3.64
2017-02-02T04:38:08.635Z,3.65
2017-02-02T04:40:21.056Z,3.66
2017-02-02T04:42:33.437Z,3.66
2017-02-02T04:44:45.585Z,3.65
2017-02-02T04:46:57.711Z,3.66
2017-02-02T04:49:10.261Z,3.66
2017-02-02T04:51:22.810Z,3.66
2017-02-02T04:55:45.622Z,3.67
2017-02-02T04:57:57.813Z,3.66
2017-02-02T05:00:10.328Z,3.66
2017-02-02T05:02:22.618Z,3.66
2017-02-02T05:04:35.159Z,3.64
2017-02-02T05:06:47.334Z,3.65
2017-02-02T05:08:59.519Z,3.65
2017-02-02T05:11:11.735Z,3.64
2017-02-02T05:13:24.111Z,3.61
2017-02-02T05:15:36.424Z,3.57
2017-02-02T05:17:48.714Z,3.56
2017-02-02T05:20:01.130Z,3.57
2017-02-02T05:22:13.444Z,3.57
2017-02-02T05:24:26.049Z,3.57
2017-02-02T05:26:38.345Z,3.58
2017-02-02T05:28:50.599Z,3.61
2017-02-02T05:31:02.766Z,3.63
2017-02-02T05:33:15.176Z,3.66
2017-02-02T05:35:27.452Z,3.69
2017-02-02T05:37:39.629Z,3.72
2017-02-02T05:39:51.797Z,3.76
2017-02-02T05:42:03.929Z,3.78
2017-02-02T05:44:16.378Z,3.8
2017-02-02T05:46:28.596Z,3.82
2017-02-02T05:48:40.936Z,3.81
2017-02-02T05:50:53.036Z,3.81
2017-02-02T05:53:05.254Z,3.81
2017-02-02T05:55:17.522Z,3.8
2017-02-02T05:57:29.953Z,3.8
2017-02-02T05:59:42.240Z,3.79
2017-02-02T06:01:49.380Z,3.76
2017-02-02T06:04:00.044Z,3.73
2017-02-02T06:06:12.586Z,3.68
2017-02-02T06:08:24.823Z,3.63
2017-02-02T06:10:37.013Z,3.55
2017-02-02T06:12:49.169Z,3.48
2017-02-02T06:15:01.287Z,3.4
2017-02-02T06:17:13.588Z,3.33
2017-02-02T06:19:25.872Z,3.27
2017-02-02T06:21:37.999Z,3.22
2017-02-02T06:23:50.269Z,3.18
2017-02-02T06:26:02.547Z,3.13
2017-02-02T06:28:14.741Z,3.11
2017-02-02T06:30:27.139Z,3.11
2017-02-02T06:32:39.803Z,3.11
2017-02-02T06:34:52.084Z,3.12
2017-02-02T06:37:04.285Z,3.14
2017-02-02T06:39:16.517Z,3.14
2017-02-02T06:41:28.786Z,3.16
2017-02-02T06:43:41.508Z,3.18
2017-02-02T06:45:53.749Z,3.2
2017-02-02T06:48:06.264Z,3.21
2017-02-02T06:50:18.502Z,3.23
2017-02-02T06:52:30.634Z,3.25
2017-02-02T06:54:43.023Z,3.27
2017-02-02T06:56:55.262Z,3.31
2017-02-02T06:59:07.559Z,3.34
2017-02-02T07:01:20.590Z,3.37
2017-02-02T07:03:32.754Z,3.4
2017-02-02T07:05:45.068Z,3.45
2017-02-02T07:07:52.860Z,3.49
2017-02-02T07:10:05.464Z,3.55
2017-02-02T07:12:17.857Z,3.61
2017-02-02T07:18:46.834Z,3.79
2017-02-02T07:20:59.154Z,3.86
2017-02-02T07:23:11.471Z,3.92
2017-02-02T07:25:23.680Z,3.98
2017-02-02T07:27:36.074Z,4.03
2017-02-02T07:29:48.209Z,4.08
2017-02-02T07:32:00.460Z,4.12
2017-02-02T07:34:12.782Z,4.19
2017-02-02T07:36:26.724Z,4.26
2017-02-02T07:38:38.999Z,4.33
2017-02-02T07:40:51.349Z,4.43
2017-02-02T07:43:05.155Z,4.53
2017-02-02T07:45:17.963Z,4.61
2017-02-02T07:47:30.182Z,4.72
2017-02-02T07:49:42.558Z,4.87
2017-02-02T07:51:54.887Z,5.02
2017-02-02T07:54:07.338Z,5.2
2017-02-02T07:56:19.767Z,5.34
2017-02-02T07:58:32.113Z,5.46
2017-02-02T08:00:44.493Z,5.55
2017-02-02T08:02:56.805Z,5.63
2017-02-02T08:05:09.244Z,5.76
2017-02-02T08:07:20.548Z,5.87
2017-02-02T08:09:34.015Z,5.97
2017-02-02T08:11:46.195Z,6.06
2017-02-02T08:13:59.316Z,6.16
2017-02-02T08:16:12.869Z,6.24
2017-02-02T08:18:26.328Z,6.33
2017-02-02T08:20:38.783Z,6.42
2017-02-02T08:22:51.111Z,6.5
2017-02-02T08:25:10.924Z,6.58
2017-02-02T08:27:23.147Z,6.66
2017-02-02T08:29:35.567Z,6.73
2017-02-02T08:31:47.884Z,6.83
2017-02-02T08:34:00.262Z,6.96
2017-02-02T08:36:12.563Z,7.05
2017-02-02T08:38:24.777Z,7.14
2017-02-02T08:40:37.002Z,7.24
2017-02-02T08:42:49.170Z,7.31
2017-02-02T08:45:01.508Z,7.36
2017-02-02T08:47:13.688Z,7.4
2017-02-02T08:49:24.248Z,7.42
2017-02-02T08:51:36.431Z,7.47
2017-02-02T08:53:49.365Z,7.53
2017-02-02T08:56:01.783Z,7.59
2017-02-02T08:58:14.054Z,7.69
2017-02-02T09:00:26.223Z,7.87
2017-02-02T09:02:38.392Z,8.06
2017-02-02T09:04:50.746Z,8.27
2017-02-02T09:07:02.968Z,8.54
2017-02-02T09:09:15.183Z,8.75
2017-02-02T09:11:27.324Z,8.96
2017-02-02T09:13:39.656Z,9.18
2017-02-02T09:15:51.952Z,9.4
2017-02-02T09:18:04.186Z,9.58
2017-02-02T09:20:11.472Z,9.78
2017-02-02T09:22:23.681Z,9.95
2017-02-02T09:24:36.279Z,10.12
2017-02-02T09:26:43.526Z,10.3
2017-02-02T09:28:55.724Z,10.49
2017-02-02T09:31:08.144Z,10.52
2017-02-02T09:33:21.223Z,10.66
2017-02-02T09:35:34.056Z,10.8
2017-02-02T09:37:46.352Z,11
2017-02-02T09:39:59.278Z,11.17
2017-02-02T09:42:14.322Z,11.41
2017-02-02T09:44:30.399Z,11.76
2017-02-02T09:46:48.870Z,11.91
2017-02-02T09:49:12.404Z,12.18
2017-02-02T09:51:25.039Z,12.37
2017-02-02T09:53:37.318Z,12.6
2017-02-02T09:55:49.579Z,13.33
2017-02-02T09:58:01.804Z,13.63
2017-02-02T10:00:14.017Z,14.26
2017-02-02T10:02:26.411Z,14.63
2017-02-02T10:04:38.995Z,15.98
2017-02-02T10:06:50.046Z,18.32
2017-02-02T10:08:57.350Z,18.89
2017-02-02T10:11:09.815Z,19.21
2017-02-02T10:13:22.145Z,19.59
2017-02-02T10:15:32.793Z,19.34
2017-02-02T10:17:45.094Z,19.21
2017-02-02T10:19:57.250Z,19.27
2017-02-02T10:22:09.612Z,20.05
2017-02-02T10:24:16.826Z,19.28
2017-02-02T10:26:29.080Z,19.2
2017-02-02T10:28:41.387Z,18.82
2017-02-02T10:30:48.672Z,18.5
2017-02-02T10:32:55.863Z,18.19
2017-02-02T10:35:08.010Z,17.77
2017-02-02T10:37:15.374Z,17.59
2017-02-02T10:39:28.040Z,17.57
2017-02-02T10:41:40.657Z,17.61
2017-02-02T10:43:47.889Z,17.69
2017-02-02T10:46:00.485Z,17.82
2017-02-02T10:48:12.892Z,18.11
2017-02-02T10:50:25.263Z,18.42
2017-02-02T10:52:37.431Z,18.61
2017-02-02T10:54:49.771Z,18.89
2017-02-02T10:57:02.191Z,19.31
2017-02-02T10:59:14.376Z,19.64
2017-02-02T11:01:30.445Z,19.6
2017-02-02T11:03:42.648Z,19.53
2017-02-02T11:05:54.978Z,19.52
2017-02-02T11:08:07.329Z,19.61
2017-02-02T11:10:19.517Z,20.88
2017-02-02T11:12:26.756Z,24.25
2017-02-02T11:14:39.031Z,25.17
2017-02-02T11:16:51.583Z,26.33
2017-02-02T11:19:03.896Z,27.31
2017-02-02T11:21:16.124Z,28.43
2017-02-02T11:23:28.379Z,30.18
2017-02-02T11:25:40.743Z,31.29
2017-02-02T11:27:52.951Z,32.22
2017-02-02T11:30:05.328Z,33
2017-02-02T11:32:17.656Z,32.67
2017-02-02T11:34:29.921Z,33.19
2017-02-02T11:36:42.309Z,34.03
2017-02-02T11:38:54.467Z,34.34
2017-02-02T11:41:05.046Z,34.79
2017-02-02T11:43:17.175Z,35.06
2017-02-02T11:45:30.713Z,34.87
2017-02-02T11:47:42.928Z,35.44
2017-02-02T11:49:55.399Z,35.75
2017-02-02T11:52:07.554Z,35.33
2017-02-02T11:54:19.877Z,36.05
2017-02-02T11:56:32.261Z,36.56
2017-02-02T11:58:44.469Z,36.93
2017-02-02T12:00:56.697Z,36.76
2017-02-02T12:03:04.529Z,35.41
2017-02-02T12:05:11.794Z,33.52
2017-02-02T12:07:24.128Z,32.31
2017-02-02T12:09:31.495Z,33.05
2017-02-02T12:11:38.721Z,34.43
2017-02-02T12:13:51.085Z,35.39
2017-02-02T12:16:03.231Z,33.88
2017-02-02T12:18:15.621Z,32.33
2017-02-02T12:20:27.807Z,32.09
2017-02-02T12:22:41.882Z,33.15
2017-02-02T12:24:54.561Z,32.75
2017-02-02T12:27:05.658Z,31.85
2017-02-02T12:29:19.225Z,32.24
2017-02-02T12:31:26.619Z,32.73
2017-02-02T12:33:33.793Z,31.89
2017-02-02T12:35:45.916Z,31.52
2017-02-02T12:37:58.212Z,29.35
2017-02-02T12:40:10.425Z,27.32
2017-02-02T12:42:22.704Z,26.06
2017-02-02T12:44:35.050Z,25.07
2017-02-02T12:46:47.347Z,24.23
2017-02-02T12:48:59.925Z,23.62
2017-02-02T12:51:12.128Z,23.37
2017-02-02T12:53:24.456Z,23.07
2017-02-02T12:55:36.733Z,22.8
2017-02-02T12:57:49.028Z,22.52
2017-02-02T13:00:01.368Z,23.41
2017-02-02T13:02:14.011Z,23.63
2017-02-02T13:04:21.337Z,23.61
2017-02-02T13:06:33.489Z,23.52
2017-02-02T13:08:45.741Z,23.47
2017-02-02T13:10:57.928Z,23.25
2017-02-02T13:13:10.253Z,23.15
2017-02-02T13:15:22.554Z,22.89
2017-02-02T13:17:34.886Z,22.64
2017-02-02T13:19:47.266Z,22.24
2017-02-02T13:21:59.529Z,21.9
2017-02-02T13:24:11.768Z,21.55
2017-02-02T13:26:24.015Z,21.26
2017-02-02T13:28:36.208Z,20.97
2017-02-02T13:30:48.463Z,20.69
2017-02-02T13:32:55.615Z,20.42
2017-02-02T13:35:07.826Z,20.18
2017-02-02T13:37:20.169Z,19.98
2017-02-02T13:39:32.544Z,19.78
2017-02-02T13:41:39.875Z,19.61
2017-02-02T13:43:52.262Z,19.48
2017-02-02T13:46:04.731Z,19.37
2017-02-02T13:48:16.943Z,19.33
2017-02-02T13:50:29.235Z,19.52
2017-02-02T13:52:41.509Z,19.63
2017-02-02T13:54:54.154Z,19.98
2017-02-02T13:57:06.522Z,20.93
2017-02-02T13:59:08.770Z,21.52
2017-02-02T14:01:20.989Z,21.77
2017-02-02T14:03:33.303Z,22.18
2017-02-02T14:05:45.728Z,22.4
2017-02-02T14:07:58.021Z,22.33
2017-02-02T14:10:10.263Z,22.12
2017-02-02T14:12:22.596Z,22
2017-02-02T14:14:37.388Z,21.57
2017-02-02T14:16:49.672Z,20.98
2017-02-02T14:19:02.287Z,20.44
2017-02-02T14:21:14.675Z,20.08
2017-02-02T14:23:27.032Z,20.03
2017-02-02T14:25:39.328Z,20.33
2017-02-02T14:28:11.825Z,20.15
2017-02-02T14:30:58.522Z,19.73
2017-02-02T14:33:10.662Z,19.52
2017-02-02T14:35:23.012Z,19.56
2017-02-02T14:37:35.355Z,19.62
2017-02-02T14:39:42.689Z,19.56
2017-02-02T14:41:55.024Z,19.37
2017-02-02T14:44:07.383Z,19.13
2017-02-02T14:46:19.952Z,18.97
2017-02-02T14:48:32.538Z,18.64
2017-02-02T14:50:44.796Z,18.37
2017-02-02T14:52:57.055Z,18.09
2017-02-02T14:55:09.296Z,17.69
2017-02-02T14:57:21.990Z,17.31
2017-02-02T14:59:34.289Z,17.13
2017-02-02T15:01:46.523Z,16.95
2017-02-02T15:03:53.953Z,16.7
2017-02-02T15:06:06.098Z,16.38
2017-02-02T15:08:18.582Z,16.03
2017-02-02T15:10:30.794Z,15.65
2017-02-02T15:12:42.969Z,15.32
2017-02-02T15:14:51.029Z,15.06
2017-02-02T15:17:03.263Z,14.81
2017-02-02T15:19:15.752Z,14.58
2017-02-02T15:21:28.514Z,14.34
2017-02-02T15:23:40.931Z,14.12
2017-02-02T15:25:53.622Z,13.89
2017-02-02T15:28:06.059Z,13.65
2017-02-02T15:30:13.319Z,13.39
2017-02-02T15:32:25.576Z,13.13
2017-02-02T15:34:37.805Z,12.87
2017-02-02T15:36:45.382Z,12.65
2017-02-02T15:38:53.556Z,12.44
2017-02-02T15:41:06.154Z,12.23
2017-02-02T15:43:18.394Z,12
2017-02-02T15:45:30.777Z,11.79
2017-02-02T15:47:38.869Z,11.58
2017-02-02T15:49:51.190Z,11.37
2017-02-02T15:52:03.409Z,11.15
2017-02-02T15:54:08.967Z,10.94
2017-02-02T15:56:21.725Z,10.71
2017-02-02T15:58:34.190Z,10.49
2017-02-02T16:00:46.563Z,10.28
2017-02-02T16:02:59.234Z,10.07
2017-02-02T16:05:11.469Z,9.87
2017-02-02T16:07:23.675Z,9.68
2017-02-02T16:09:36.090Z,9.51
2017-02-02T16:11:48.494Z,9.35
2017-02-02T16:14:00.740Z,9.21
2017-02-02T16:16:13.044Z,9.09
2017-02-02T16:18:25.501Z,8.98
2017-02-02T16:20:32.714Z,8.87
2017-02-02T16:22:40.146Z,8.77
2017-02-02T16:24:48.029Z,8.69
2017-02-02T16:27:03.564Z,8.58
2017-02-02T16:29:16.098Z,8.48
2017-02-02T16:31:30.647Z,8.37
2017-02-02T16:33:42.961Z,8.25
2017-02-02T16:35:59.287Z,8.13
2017-02-02T16:38:11.522Z,8.04
2017-02-02T16:40:26.081Z,7.93
2017-02-02T16:42:43.715Z,7.82
2017-02-02T16:45:03.928Z,7.7
2017-02-02T16:47:27.776Z,7.59
2017-02-02T16:50:04.159Z,7.5
2017-02-02T16:52:30.212Z,7.42
2017-02-02T16:55:07.510Z,7.36
2017-02-02T16:57:35.437Z,7.31
2017-02-02T16:59:59.956Z,7.24
2017-02-02T17:02:19.322Z,7.16
2017-02-02T17:04:45.312Z,7.09
2017-02-02T17:07:04.527Z,7.01
2017-02-02T17:09:35.359Z,6.94
2017-02-02T17:12:00.397Z,6.86
2017-02-02T17:14:34.700Z,6.78
2017-02-02T17:19:38.311Z,6.55
2017-02-02T17:22:13.297Z,6.46
2017-02-02T17:24:51.048Z,6.36
2017-02-02T17:27:36.274Z,6.27
2017-02-02T17:30:19.491Z,6.19
2017-02-02T17:33:05.636Z,6.09
2017-02-02T17:35:49.538Z,5.96
2017-02-02T17:38:34.497Z,5.83
2017-02-02T17:41:23.908Z,5.7
2017-02-02T17:44:11.799Z,5.57
2017-02-02T17:46:59.520Z,5.45
2017-02-02T17:49:39.036Z,5.35
2017-02-02T17:52:22.096Z,5.28
2017-02-02T17:54:57.441Z,5.23
2017-02-02T17:57:34.725Z,5.19
2017-02-02T18:00:08.375Z,5.14
2017-02-02T18:02:54.596Z,5.09
2017-02-02T18:05:27.884Z,5.03
2017-02-02T18:08:08.777Z,4.99
2017-02-02T18:10:51.216Z,4.93
2017-02-02T18:13:41.129Z,4.87
2017-02-02T18:16:17.847Z,4.82
2017-02-02T18:18:52.459Z,4.76
2017-02-02T18:21:23.952Z,4.73
2017-02-02T18:23:58.209Z,4.72
2017-02-02T18:26:37.340Z,4.69
2017-02-02T18:29:19.410Z,4.68
2017-02-02T18:31:40.995Z,4.65
2017-02-02T18:33:58.414Z,4.62
2017-02-02T18:36:22.367Z,4.6
2017-02-02T18:39:17.722Z,4.58
2017-02-02T18:42:14.812Z,4.54
2017-02-02T18:45:12.223Z,4.51
2017-02-02T18:48:18.350Z,4.48
2017-02-02T18:51:18.875Z,4.46
2017-02-02T18:54:17.929Z,4.43
2017-02-02T19:00:46.174Z,4.38
2017-02-02T19:03:52.028Z,4.35
2017-02-02T19:06:19.018Z,4.33
2017-02-02T19:08:40.515Z,4.32
2017-02-02T19:11:31.638Z,4.29
2017-02-02T19:14:04.190Z,4.28
2017-02-02T19:16:17.110Z,4.25
2017-02-02T19:19:04.526Z,4.23
2017-02-02T19:21:54.515Z,4.2
2017-02-02T19:24:44.244Z,4.18
2017-02-02T19:27:38.016Z,4.17
2017-02-02T19:30:37.767Z,4.15
2017-02-02T19:33:35.763Z,4.11
2017-02-02T19:36:36.311Z,4.07
2017-02-02T19:39:32.112Z,4.03
2017-02-02T19:42:32.020Z,3.99
2017-02-02T19:45:28.093Z,3.96
2017-02-02T19:48:04.447Z,3.93
2017-02-02T19:50:17.384Z,3.92
2017-02-02T19:52:29.147Z,3.9
2017-02-02T19:54:43.015Z,3.89
2017-02-02T19:56:58.542Z,3.89
2017-02-02T19:59:13.224Z,3.86
2017-02-02T20:01:30.099Z,3.84
2017-02-02T20:03:47.284Z,3.81
2017-02-02T20:05:59.995Z,3.78
2017-02-02T20:08:10.692Z,3.75
2017-02-02T20:10:23.146Z,3.72
2017-02-02T20:12:35.748Z,3.68
2017-02-02T20:15:12.045Z,3.64
2017-02-02T20:17:22.618Z,3.6
2017-02-02T20:19:35.051Z,3.55
2017-02-02T20:21:47.376Z,3.5
2017-02-02T20:23:59.905Z,3.44
2017-02-02T20:26:12.263Z,3.38
2017-02-02T20:28:24.546Z,3.33
2017-02-02T20:30:27.073Z,3.29
2017-02-02T20:32:37.829Z,3.25
2017-02-02T20:34:50.173Z,3.18
2017-02-02T20:37:02.634Z,3.12
2017-02-02T20:39:15.208Z,3.06
2017-02-02T20:41:22.438Z,3.01
2017-02-02T20:43:34.865Z,2.95
2017-02-02T20:45:49.145Z,2.91
2017-02-02T20:48:01.705Z,2.87
2017-02-02T20:50:13.969Z,2.83
2017-02-02T20:52:26.305Z,2.77
2017-02-02T20:54:38.531Z,2.74
2017-02-02T20:56:50.748Z,2.7
2017-02-02T20:59:03.322Z,2.66
2017-02-02T21:01:13.808Z,2.59
2017-02-02T21:03:26.184Z,2.53
2017-02-02T21:05:38.721Z,2.48
2017-02-02T21:07:46.832Z,2.46
2017-02-02T21:09:59.698Z,2.47
2017-02-02T21:12:12.637Z,2.45
2017-02-02T21:14:25.487Z,2.41
2017-02-02T21:16:34.658Z,2.4
2017-02-02T21:18:41.969Z,2.39
2017-02-02T21:20:56.374Z,2.36
2017-02-02T21:23:09.073Z,2.34
2017-02-02T21:25:22.504Z,2.29
2017-02-02T21:27:35.231Z,2.25
2017-02-02T21:29:42.679Z,2.2
2017-02-02T21:31:55.189Z,2.14
2017-02-02T21:34:14.793Z,2.06
2017-02-02T21:36:48.037Z,2.01
2017-02-02T21:39:21.669Z,1.95
2017-02-02T21:42:03.446Z,1.89
2017-02-02T21:44:47.244Z,1.85
2017-02-02T21:47:10.229Z,1.8
2017-02-02T21:49:17.554Z,1.76
2017-02-02T21:51:30.031Z,1.73
2017-02-02T21:53:42.484Z,1.7
2017-02-02T21:55:54.858Z,1.69
2017-02-02T21:58:07.180Z,1.66
2017-02-02T22:00:19.584Z,1.65
2017-02-02T22:02:31.837Z,1.63
2017-02-02T22:04:44.123Z,1.6
2017-02-02T22:06:56.500Z,1.6
2017-02-02T22:09:03.783Z,1.59
2017-02-02T22:11:15.964Z,1.6
2017-02-02T22:13:23.224Z,1.58
2017-02-02T22:15:35.708Z,1.57
2017-02-02T22:17:47.992Z,1.59
2017-02-02T22:20:00.267Z,1.61
2017-02-02T22:22:12.487Z,1.62
2017-02-02T22:24:19.745Z,1.63
2017-02-02T22:26:32.037Z,1.62
2017-02-02T22:28:44.218Z,1.62
2017-02-02T22:30:56.600Z,1.58
2017-02-02T22:33:08.887Z,1.59
2017-02-02T22:35:21.074Z,1.61
2017-02-02T22:37:33.386Z,1.63
2017-02-02T22:39:45.825Z,1.63
2017-02-02T22:41:58.016Z,1.63
2017-02-02T22:44:10.252Z,1.64
2017-02-02T22:46:22.585Z,1.69
2017-02-02T22:48:34.896Z,1.69
2017-02-02T22:50:47.216Z,1.66
2017-02-02T22:52:59.473Z,1.64
2017-02-02T22:55:11.681Z,1.6
2017-02-02T22:57:24.014Z,1.57
2017-02-02T22:59:34.578Z,1.54
2017-02-02T23:01:46.810Z,1.52
2017-02-02T23:03:54.272Z,1.5
2017-02-02T23:06:06.462Z,1.49
2017-02-02T23:08:18.952Z,1.47
2017-02-02T23:10:31.645Z,1.47
2017-02-02T23:12:43.968Z,1.5
2017-02-02T23:14:56.827Z,1.51
2017-02-02T23:17:09.439Z,1.53
2017-02-02T23:19:21.669Z,1.59
2017-02-02T23:21:34.032Z,1.65
2017-02-02T23:23:47.789Z,1.69
2017-02-02T23:26:00.418Z,1.73
2017-02-02T23:28:12.810Z,1.76
2017-02-02T23:30:25.035Z,1.79
2017-02-02T23:32:37.363Z,1.81
2017-02-02T23:34:49.705Z,1.81
2017-02-02T23:36:56.958Z,1.82
2017-02-02T23:39:09.084Z,1.82
2017-02-02T23:41:21.409Z,1.88
2017-02-02T23:43:33.727Z,1.93
2017-02-02T23:45:45.906Z,1.94
2017-02-02T23:47:58.334Z,1.95
2017-02-02T23:50:10.567Z,1.98
2017-02-02T23:52:22.958Z,1.97
2017-02-02T23:54:35.242Z,1.98
2017-02-02T23:58:53.173Z,1.99
